Time;durP1;ratioP1;P1;durP2;ratioP2;P2;SDS_P1;SDS_P2;PMS_P1;PMS_P2;Temp;Humidity;BMP_temperature;BMP_pressure;BME280_temperature;BME280_humidity;BME280_pressure;Samples;Min_cycle;Max_cycle;Signal;HPM_P1;HPM_P2
2022/12/24 00:00:07;;;;;;;;;;;;;;;10.99;55.67;98940.94;4357977;32;34186;-65
2022/12/24 00:02:35;;;;;;;;;;;;;;;10.66;57.10;98944.78;4358926;32;34314;-65
2022/12/24 00:05:02;;;;;;;;;;;;;;;10.86;56.42;98956.41;4357329;32;32999;-65
2022/12/24 00:07:29;;;;;;;;;;;;;;;10.91;56.38;98938.09;4352908;32;33019;-65
2022/12/24 00:09:57;;;;;;;;;;;;;;;10.67;57.09;98935.78;4354428;32;35396;-65
2022/12/24 00:12:24;;;;;;;;;;;;;;;10.70;56.92;98932.81;4360132;32;35050;-65
2022/12/24 00:14:51;;;;;;;;;;;;;;;10.66;56.87;98937.59;4356402;32;33314;-65
2022/12/24 00:17:19;;;;;;;;;;;;;;;10.82;56.16;98930.88;4355229;32;32525;-65
2022/12/24 00:19:46;;;;;;;;;;;;;;;10.87;56.29;98924.13;4358094;32;34446;-65
2022/12/24 00:22:13;;;;;;;;;;;;;;;10.85;56.57;98912.75;4356963;32;34572;-65
2022/12/24 00:24:41;;;;;;;;;;;;;;;10.95;56.25;98910.94;4356676;32;33966;-64
2022/12/24 00:27:08;;;;;;;;;;;;;;;11.08;55.91;98925.91;4353343;32;33958;-64
2022/12/24 00:29:35;;;;;;;;;;;;;;;10.71;56.57;98923.81;4347954;32;34547;-64
2022/12/24 00:32:06;;;;;;;;;;;;;;;10.75;56.57;98919.88;4354159;32;34139;-64
2022/12/24 00:34:34;;;;;;;;;;;;;;;10.93;55.98;98923.59;4354760;32;33172;-64
2022/12/24 00:37:01;;;;;;;;;;;;;;;10.89;56.37;98927.53;4351417;32;34473;-64
2022/12/24 00:39:28;;;;;;;;;;;;;;;11.02;55.96;98947.88;4353844;32;34182;-64
2022/12/24 00:41:56;;;;;;;;;;;;;;;10.82;57.04;98974.56;4355887;32;33959;-64
2022/12/24 00:44:23;;;;;;;;;;;;;;;11.01;56.43;98997.91;4351986;32;33888;-64
2022/12/24 00:46:51;;;;;;;;;;;;;;;10.81;56.91;99004.97;4353012;32;33959;-63
2022/12/24 00:49:18;;;;;;;;;;;;;;;10.77;57.31;98990.19;4351760;32;32999;-64
2022/12/24 00:51:46;;;;;;;;;;;;;;;11.05;56.31;98987.75;4357805;32;34111;-64
2022/12/24 00:54:13;;;;;;;;;;;;;;;11.03;56.72;98997.75;4354107;32;33538;-63
2022/12/24 00:56:40;;;;;;;;;;;;;;;11.14;56.31;98978.91;4342961;32;33881;-64
2022/12/24 00:59:08;;;;;;;;;;;;;;;11.18;56.18;98970.44;4353806;32;35748;-64
2022/12/24 01:01:35;;;;;;;;;;;;;;;11.26;55.97;98963.56;4351151;32;34066;-64
2022/12/24 01:06:49;;;;;;;;;;;;;;;11.14;56.48;98946.78;4353582;32;34538;-64
2022/12/24 01:09:16;;;;;;;;;;;;;;;11.13;56.49;98945.06;4352994;32;34209;-64
2022/12/24 01:11:45;;;;;;;;;;;;;;;11.10;56.49;98934.63;4350300;32;33959;-64
2022/12/24 01:14:12;;;;;;;;;;;;;;;11.11;56.60;98913.06;4358540;32;33421;-65
2022/12/24 01:16:39;;;;;;;;;;;;;;;10.96;57.29;98907.25;4350516;32;34041;-65
2022/12/24 01:19:06;;;;;;;;;;;;;;;10.70;58.51;98892.69;4356596;32;33779;-64
2022/12/24 01:21:34;;;;;;;;;;;;;;;10.47;60.07;98887.53;4349363;32;34076;-65
2022/12/24 01:24:01;;;;;;;;;;;;;;;10.56;59.98;98888.56;4357876;32;34311;-64
2022/12/24 01:26:28;;;;;;;;;;;;;;;10.75;59.29;98902.97;4356146;32;32970;-65
2022/12/24 01:28:56;;;;;;;;;;;;;;;11.10;58.24;98907.84;4354483;32;33472;-65
2022/12/24 01:31:23;;;;;;;;;;;;;;;10.53;59.34;98910.25;4352281;32;34301;-64
2022/12/24 01:33:50;;;;;;;;;;;;;;;11.18;57.35;98913.38;4358139;32;34402;-64
2022/12/24 01:36:18;;;;;;;;;;;;;;;11.31;56.74;98907.75;4355230;32;35222;-66
2022/12/24 01:38:45;;;;;;;;;;;;;;;11.37;56.27;98909.88;4352978;32;34438;-66
2022/12/24 01:44:22;;;;;;;;;;;;;;;10.79;57.79;98889.19;4357598;32;33479;-66
2022/12/24 01:47:07;;;;;;;;;;;;;;;11.26;56.30;98897.44;4355975;32;34531;-66
2022/12/24 01:49:34;;;;;;;;;;;;;;;11.11;56.57;98893.50;4358029;32;35113;-66
2022/12/24 01:52:16;;;;;;;;;;;;;;;11.18;56.62;98908.00;4356722;32;34081;-65
2022/12/24 01:54:45;;;;;;;;;;;;;;;11.27;56.61;98906.31;4356456;32;32942;-64
2022/12/24 01:57:15;;;;;;;;;;;;;;;11.34;56.45;98905.63;4342965;32;32826;-64
2022/12/24 01:59:42;;;;;;;;;;;;;;;11.34;56.29;98902.09;4342799;32;34134;-65
2022/12/24 02:02:10;;;;;;;;;;;;;;;11.22;56.46;98903.22;4342686;32;34564;-65
2022/12/24 02:04:50;;;;;;;;;;;;;;;11.37;55.92;98904.50;4356115;32;33568;-65
2022/12/24 02:07:19;;;;;;;;;;;;;;;11.17;57.01;98906.28;4357991;32;34473;-65
2022/12/24 02:09:47;;;;;;;;;;;;;;;11.17;57.09;98903.63;4358501;32;33785;-65
2022/12/24 02:12:14;;;;;;;;;;;;;;;11.28;56.73;98899.97;4356884;32;34212;-65
2022/12/24 02:14:42;;;;;;;;;;;;;;;11.07;57.05;98913.47;4337308;32;32439;-65
2022/12/24 02:17:09;;;;;;;;;;;;;;;11.31;56.50;98913.09;4357308;32;35286;-65
2022/12/24 02:19:55;;;;;;;;;;;;;;;11.36;56.42;98925.09;4343930;32;32739;-65
2022/12/24 02:22:32;;;;;;;;;;;;;;;11.47;56.07;98939.34;4355835;32;34166;-65
2022/12/24 02:25:15;;;;;;;;;;;;;;;11.28;56.61;98991.91;4355816;32;33324;-64
2022/12/24 02:27:45;;;;;;;;;;;;;;;11.28;56.75;98973.16;4332279;32;793286;-65
2022/12/24 02:30:19;;;;;;;;;;;;;;;11.18;56.92;98937.47;4356832;32;34487;-65
2022/12/24 02:32:46;;;;;;;;;;;;;;;11.39;56.20;98929.31;4357729;32;34335;-65
2022/12/24 02:35:13;;;;;;;;;;;;;;;11.53;55.63;98925.38;4351484;32;32170;-65
2022/12/24 02:38:01;;;;;;;;;;;;;;;11.53;55.46;98925.38;4356413;32;34199;-65
2022/12/24 02:40:30;;;;;;;;;;;;;;;11.28;56.31;98913.38;4355743;32;34093;-65
2022/12/24 02:42:59;;;;;;;;;;;;;;;11.45;55.80;98914.50;4355808;32;34321;-65
2022/12/24 02:45:28;;;;;;;;;;;;;;;11.49;55.67;98907.88;4353500;32;33427;-65
2022/12/24 02:47:55;;;;;;;;;;;;;;;11.31;56.32;98907.75;4345445;32;34530;-65
2022/12/24 02:50:23;;;;;;;;;;;;;;;11.40;56.00;98910.44;4341350;32;34250;-65
2022/12/24 02:52:50;;;;;;;;;;;;;;;11.30;56.20;98904.22;4355211;32;34264;-65
2022/12/24 02:55:19;;;;;;;;;;;;;;;10.92;57.79;98902.31;4354466;32;33771;-65
2022/12/24 02:58:05;;;;;;;;;;;;;;;11.12;57.31;98905.88;4357027;32;34021;-65
2022/12/24 03:00:52;;;;;;;;;;;;;;;11.35;56.80;98907.31;4354839;32;34377;-65
2022/12/24 03:03:31;;;;;;;;;;;;;;;11.23;57.03;98924.50;4357368;32;34293;-64
2022/12/24 03:06:08;;;;;;;;;;;;;;;11.43;56.16;98936.94;4348545;32;34707;-64
2022/12/24 03:08:49;;;;;;;;;;;;;;;11.40;56.58;98929.19;4352751;32;34635;-64
2022/12/24 03:11:17;;;;;;;;;;;;;;;11.39;56.55;98924.78;4354191;32;33945;-64
2022/12/24 03:13:44;;;;;;;;;;;;;;;11.35;56.60;98931.41;4335700;32;32934;-64
2022/12/24 03:16:13;;;;;;;;;;;;;;;11.49;56.21;98930.16;4339678;32;33221;-65
2022/12/24 03:18:41;;;;;;;;;;;;;;;11.33;56.65;98924.50;4352839;32;34620;-64
2022/12/24 03:21:28;;;;;;;;;;;;;;;10.57;59.32;98934.87;4355654;32;34944;-65
2022/12/24 03:23:55;;;;;;;;;;;;;;;11.11;57.56;98925.63;4347336;32;34605;-65
2022/12/24 03:26:23;;;;;;;;;;;;;;;11.30;57.41;98920.28;4350710;32;34293;-65
2022/12/24 03:28:50;;;;;;;;;;;;;;;11.59;56.61;98916.78;4348015;32;34491;-65
2022/12/24 03:31:18;;;;;;;;;;;;;;;11.62;56.53;98922.72;4355754;32;35228;-65
2022/12/24 03:33:45;;;;;;;;;;;;;;;11.82;56.02;98915.50;4356589;32;34356;-65
2022/12/24 03:36:12;;;;;;;;;;;;;;;11.92;55.84;98920.88;4355244;32;34363;-63
2022/12/24 03:38:40;;;;;;;;;;;;;;;11.78;56.39;98918.59;4355402;32;34440;-63
2022/12/24 03:41:07;;;;;;;;;;;;;;;11.73;56.67;98918.19;4359237;32;35198;-64
2022/12/24 03:43:34;;;;;;;;;;;;;;;11.84;56.20;98929.62;4352672;32;34652;-63
2022/12/24 03:46:02;;;;;;;;;;;;;;;11.99;55.77;98940.75;4355795;32;33991;-64
2022/12/24 03:48:30;;;;;;;;;;;;;;;11.80;56.27;98943.44;4355617;32;35281;-64
2022/12/24 03:50:59;;;;;;;;;;;;;;;11.71;56.35;98950.47;4350737;32;36020;-64
2022/12/24 03:53:26;;;;;;;;;;;;;;;11.51;56.95;98956.81;4355874;32;33867;-64
2022/12/24 03:55:53;;;;;;;;;;;;;;;11.43;57.63;98949.50;4358041;32;32878;-64
2022/12/24 03:58:20;;;;;;;;;;;;;;;11.39;57.68;98953.41;4354543;32;34273;-64
2022/12/24 04:00:48;;;;;;;;;;;;;;;11.62;57.32;98962.03;4356229;32;32955;-63
2022/12/24 04:03:15;;;;;;;;;;;;;;;11.45;57.89;98946.66;4353207;32;34611;-64
2022/12/24 04:05:45;;;;;;;;;;;;;;;11.52;57.66;98961.19;4356059;32;34871;-64
2022/12/24 04:08:12;;;;;;;;;;;;;;;11.76;56.81;98950.91;4349084;32;34910;-65
2022/12/24 04:10:40;;;;;;;;;;;;;;;11.76;56.80;98958.97;4352452;32;33874;-65
2022/12/24 04:13:07;;;;;;;;;;;;;;;11.70;57.08;98947.94;4355492;32;34054;-65
2022/12/24 04:15:34;;;;;;;;;;;;;;;11.45;57.84;98958.22;4354846;32;33760;-64
2022/12/24 04:18:02;;;;;;;;;;;;;;;11.71;56.90;98963.87;4353749;32;34260;-64
2022/12/24 04:20:29;;;;;;;;;;;;;;;11.76;56.57;98969.69;4353466;32;33166;-65
2022/12/24 04:22:56;;;;;;;;;;;;;;;11.90;56.04;98973.78;4353382;32;34565;-64
2022/12/24 04:25:24;;;;;;;;;;;;;;;11.58;57.21;98976.72;4358978;32;33364;-64
2022/12/24 04:27:51;;;;;;;;;;;;;;;11.75;56.65;98973.34;4354798;32;35099;-64
2022/12/24 04:30:19;;;;;;;;;;;;;;;11.70;56.36;98964.87;4356758;32;35019;-64
2022/12/24 04:32:46;;;;;;;;;;;;;;;12.06;55.31;98968.69;4354677;32;34273;-64
2022/12/24 04:35:13;;;;;;;;;;;;;;;11.82;55.85;98968.28;4358158;32;33464;-64
2022/12/24 04:37:40;;;;;;;;;;;;;;;11.71;56.42;98969.25;4354773;32;33826;-64
2022/12/24 04:40:08;;;;;;;;;;;;;;;11.57;57.02;98957.13;4358578;32;35446;-64
2022/12/24 04:42:35;;;;;;;;;;;;;;;11.96;55.53;98967.84;4361711;32;34416;-63
2022/12/24 04:45:03;;;;;;;;;;;;;;;11.88;55.65;98962.38;4356049;32;34502;-64
2022/12/24 04:47:33;;;;;;;;;;;;;;;11.92;55.63;98966.47;4355755;32;34498;-65
2022/12/24 04:50:00;;;;;;;;;;;;;;;12.03;55.19;98968.97;4349451;32;34842;-64
2022/12/24 04:52:27;;;;;;;;;;;;;;;11.96;55.17;98959.81;4355196;32;34617;-65
2022/12/24 04:54:55;;;;;;;;;;;;;;;12.06;54.86;98960.66;4355744;32;34471;-65
2022/12/24 04:57:22;;;;;;;;;;;;;;;11.93;55.23;98959.25;4354413;32;35160;-65
2022/12/24 04:59:49;;;;;;;;;;;;;;;12.05;55.09;98976.91;4351637;32;32372;-65
2022/12/24 05:02:17;;;;;;;;;;;;;;;12.01;54.93;98968.28;4356230;32;34501;-64
2022/12/24 05:04:44;;;;;;;;;;;;;;;12.05;54.69;98979.59;4357128;32;33484;-64
2022/12/24 05:07:11;;;;;;;;;;;;;;;11.89;55.15;98970.28;4348826;32;34318;-64
2022/12/24 05:09:39;;;;;;;;;;;;;;;11.99;54.90;98980.16;4353814;32;33080;-64
2022/12/24 05:12:07;;;;;;;;;;;;;;;12.01;54.78;98972.81;4356045;32;32788;-66
2022/12/24 05:14:34;;;;;;;;;;;;;;;11.86;55.23;98975.91;4351252;32;33460;-63
2022/12/24 05:17:01;;;;;;;;;;;;;;;11.89;55.39;98978.31;4356874;32;34221;-64
2022/12/24 05:19:29;;;;;;;;;;;;;;;11.91;55.42;98986.22;4352268;32;35140;-63
2022/12/24 05:27:28;;;;;;;;;;;;;;;12.01;54.84;98995.13;4356454;32;33876;-65
2022/12/24 05:29:56;;;;;;;;;;;;;;;11.71;55.50;98990.69;4343861;32;35217;-65
2022/12/24 05:32:23;;;;;;;;;;;;;;;10.93;57.76;98997.72;4359183;32;32488;-65
2022/12/24 05:34:50;;;;;;;;;;;;;;;11.45;56.38;98998.41;4359186;32;32912;-64
2022/12/24 05:37:18;;;;;;;;;;;;;;;11.18;57.08;98999.06;4360966;32;35012;-64
2022/12/24 05:39:45;;;;;;;;;;;;;;;11.54;56.02;99007.47;4357655;32;34602;-64
2022/12/24 05:42:12;;;;;;;;;;;;;;;11.57;55.77;98999.16;4362253;32;33872;-65
2022/12/24 05:44:39;;;;;;;;;;;;;;;11.69;55.63;99002.56;4357224;32;33698;-65
2022/12/24 05:47:07;;;;;;;;;;;;;;;11.76;55.40;98999.16;4361093;32;34181;-65
2022/12/24 05:49:34;;;;;;;;;;;;;;;11.79;55.44;98985.47;4357762;32;34040;-65
2022/12/24 05:52:01;;;;;;;;;;;;;;;11.71;56.08;98987.16;4358310;32;35907;-64
2022/12/24 05:54:29;;;;;;;;;;;;;;;11.72;56.00;98992.41;4358496;32;33787;-64
2022/12/24 05:56:56;;;;;;;;;;;;;;;11.73;56.05;98993.25;4360988;32;35323;-64
2022/12/24 05:59:23;;;;;;;;;;;;;;;11.52;56.88;98993.34;4359217;32;35321;-64
2022/12/24 06:01:50;;;;;;;;;;;;;;;11.76;56.21;98998.31;4359209;32;34830;-64
2022/12/24 06:04:18;;;;;;;;;;;;;;;11.86;55.95;99009.94;4358507;32;34583;-64
2022/12/24 06:06:54;;;;;;;;;;;;;;;11.88;55.87;99016.84;4358652;32;34853;-64
2022/12/24 06:09:21;;;;;;;;;;;;;;;11.87;55.53;99012.44;4359393;32;34457;-64
2022/12/24 06:11:49;;;;;;;;;;;;;;;11.73;55.72;99002.13;4360218;32;34805;-65
2022/12/24 06:14:16;;;;;;;;;;;;;;;11.82;55.69;99011.16;4360113;32;34252;-65
2022/12/24 06:16:43;;;;;;;;;;;;;;;11.97;54.71;99003.56;4359632;32;33875;-65
2022/12/24 06:19:11;;;;;;;;;;;;;;;11.94;54.69;99007.41;4358989;32;34263;-65
2022/12/24 06:21:38;;;;;;;;;;;;;;;11.99;54.62;99007.81;4360135;32;35377;-64
2022/12/24 06:24:06;;;;;;;;;;;;;;;12.00;54.57;98998.75;4357462;32;33722;-64
2022/12/24 06:26:33;;;;;;;;;;;;;;;11.91;54.62;99006.81;4360125;32;34032;-64
2022/12/24 06:29:00;;;;;;;;;;;;;;;11.95;54.35;99008.25;4358772;32;33952;-64
2022/12/24 06:31:28;;;;;;;;;;;;;;;11.88;54.60;99010.66;4352892;32;32924;-64
2022/12/24 06:33:55;;;;;;;;;;;;;;;11.41;56.25;99013.09;4354011;32;34276;-65
2022/12/24 06:36:23;;;;;;;;;;;;;;;11.47;56.71;99022.41;4358752;32;34150;-64
2022/12/24 06:38:51;;;;;;;;;;;;;;;11.63;56.50;99026.25;4357440;32;34670;-64
2022/12/24 06:41:18;;;;;;;;;;;;;;;11.91;55.50;99031.81;4362549;32;35473;-64
2022/12/24 06:43:46;;;;;;;;;;;;;;;11.93;55.86;99023.63;4357819;32;33598;-64
2022/12/24 06:46:14;;;;;;;;;;;;;;;11.98;55.81;99035.63;4357841;32;34093;-64
2022/12/24 06:48:42;;;;;;;;;;;;;;;12.07;56.10;99032.09;4359252;32;35785;-64
2022/12/24 06:51:09;;;;;;;;;;;;;;;12.15;56.83;99044.78;4356707;32;34478;-64
2022/12/24 06:53:36;;;;;;;;;;;;;;;12.31;56.96;99053.09;4359993;32;33430;-64
2022/12/24 06:56:04;;;;;;;;;;;;;;;12.32;57.18;99043.22;4358245;32;34087;-64
2022/12/24 06:58:32;;;;;;;;;;;;;;;12.36;57.66;99050.00;4358142;32;34374;-64
2022/12/24 07:01:00;;;;;;;;;;;;;;;12.35;58.19;99051.81;4357208;32;33949;-64
2022/12/24 07:03:28;;;;;;;;;;;;;;;12.37;58.33;99056.22;4357713;32;33887;-65
2022/12/24 07:05:55;;;;;;;;;;;;;;;12.25;58.01;99050.16;4346200;32;32049;-65
2022/12/24 07:08:23;;;;;;;;;;;;;;;11.99;58.77;99048.03;4356730;32;35513;-65
2022/12/24 07:10:50;;;;;;;;;;;;;;;11.73;59.96;99045.03;4355992;32;34462;-65
2022/12/24 07:13:20;;;;;;;;;;;;;;;12.05;60.30;99052.00;4353847;32;33900;-65
2022/12/24 07:15:55;;;;;;;;;;;;;;;11.98;61.11;99042.81;4359886;32;34037;-65
2022/12/24 07:18:22;;;;;;;;;;;;;;;11.88;62.14;99045.50;4357453;32;35116;-64
2022/12/24 07:20:50;;;;;;;;;;;;;;;11.84;62.25;99046.72;4360930;32;35076;-64
2022/12/24 07:23:17;;;;;;;;;;;;;;;11.51;63.88;99042.59;4357573;32;33115;-65
2022/12/24 07:25:44;;;;;;;;;;;;;;;11.68;63.47;99047.25;4357112;32;32895;-63
2022/12/24 07:28:12;;;;;;;;;;;;;;;11.69;63.38;99043.63;4361216;32;33240;-63
2022/12/24 07:30:39;;;;;;;;;;;;;;;11.84;63.34;99049.41;4359593;32;34139;-63
2022/12/24 07:33:07;;;;;;;;;;;;;;;11.79;63.83;99057.03;4358892;32;34603;-63
2022/12/24 07:35:34;;;;;;;;;;;;;;;11.54;64.66;99048.50;4357695;32;35181;-63
2022/12/24 07:38:02;;;;;;;;;;;;;;;12.15;62.61;99054.69;4356380;32;37231;-63
2022/12/24 07:40:29;;;;;;;;;;;;;;;12.64;61.18;99068.88;4356606;32;34549;-63
2022/12/24 07:42:56;;;;;;;;;;;;;;;12.56;61.10;99073.16;4356457;32;32055;-63
2022/12/24 07:45:24;;;;;;;;;;;;;;;12.08;62.79;99063.28;4356056;32;34158;-63
2022/12/24 07:47:51;;;;;;;;;;;;;;;12.22;62.61;99067.38;4359158;32;37938;-63
2022/12/24 07:50:18;;;;;;;;;;;;;;;12.11;63.08;99070.22;4359467;32;35453;-63
2022/12/24 07:52:45;;;;;;;;;;;;;;;11.94;63.70;99077.13;4359185;32;33444;-66
2022/12/24 07:55:13;;;;;;;;;;;;;;;11.84;64.49;99078.87;4357983;32;34032;-63
2022/12/24 07:57:40;;;;;;;;;;;;;;;11.84;64.55;99081.56;4357837;32;35174;-65
2022/12/24 08:00:07;;;;;;;;;;;;;;;12.02;64.46;99079.09;4359778;32;34205;-64
2022/12/24 08:02:37;;;;;;;;;;;;;;;12.00;64.60;99081.91;4359779;32;34803;-65
2022/12/24 08:05:06;;;;;;;;;;;;;;;11.93;64.98;99083.47;4346587;32;34437;-66
2022/12/24 08:07:33;;;;;;;;;;;;;;;12.40;63.50;99094.34;4356356;32;33820;-65
2022/12/24 08:10:00;;;;;;;;;;;;;;;12.34;63.55;99105.66;4358014;32;34643;-63
2022/12/24 08:12:28;;;;;;;;;;;;;;;12.67;62.77;99115.09;4358011;32;34823;-63
2022/12/24 08:14:55;;;;;;;;;;;;;;;12.73;62.17;99125.25;4357574;32;33838;-63
2022/12/24 08:17:23;;;;;;;;;;;;;;;13.21;60.60;99126.97;4360284;32;35174;-64
2022/12/24 08:19:58;;;;;;;;;;;;;;;12.64;62.24;99128.78;4359220;32;32740;-64
2022/12/24 08:22:25;;;;;;;;;;;;;;;12.67;61.99;99133.88;4359100;32;32194;-64
2022/12/24 08:24:52;;;;;;;;;;;;;;;12.30;63.46;99147.19;4358042;32;32876;-63
2022/12/24 08:27:20;;;;;;;;;;;;;;;12.50;62.56;99148.88;4354743;32;35035;-63
2022/12/24 08:29:47;;;;;;;;;;;;;;;12.20;64.21;99162.41;4357341;32;35437;-64
2022/12/24 08:32:14;;;;;;;;;;;;;;;12.43;62.74;99166.53;4358078;32;34150;-64
2022/12/24 08:34:42;;;;;;;;;;;;;;;11.91;64.11;99171.25;4359089;32;33859;-63
2022/12/24 08:37:09;;;;;;;;;;;;;;;11.99;63.94;99167.88;4359419;32;35035;-63
2022/12/24 08:39:36;;;;;;;;;;;;;;;12.09;63.30;99180.31;4352107;32;35353;-63
2022/12/24 08:42:04;;;;;;;;;;;;;;;12.03;63.46;99185.37;4359315;32;34285;-63
2022/12/24 08:44:31;;;;;;;;;;;;;;;12.11;62.58;99182.88;4356042;32;34267;-64
2022/12/24 08:46:58;;;;;;;;;;;;;;;12.37;62.36;99183.19;4359777;32;34136;-63
2022/12/24 08:49:26;;;;;;;;;;;;;;;12.17;62.59;99187.69;4359850;32;34628;-64
2022/12/24 08:51:53;;;;;;;;;;;;;;;11.91;63.78;99194.53;4357858;32;33472;-64
2022/12/24 08:54:22;;;;;;;;;;;;;;;11.97;63.30;99202.88;4360362;32;34442;-64
2022/12/24 08:56:49;;;;;;;;;;;;;;;12.16;62.93;99211.97;4352487;32;35783;-63
2022/12/24 08:59:17;;;;;;;;;;;;;;;12.48;61.95;99198.31;4357399;32;33247;-63
2022/12/24 09:01:44;;;;;;;;;;;;;;;12.21;62.63;99199.00;4358537;32;34086;-64
2022/12/24 09:04:12;;;;;;;;;;;;;;;12.29;62.38;99205.34;4344220;32;32695;-64
2022/12/24 09:06:39;;;;;;;;;;;;;;;12.62;61.39;99213.19;4357099;32;34520;-63
2022/12/24 09:09:06;;;;;;;;;;;;;;;12.19;62.30;99222.41;4358399;32;34447;-64
2022/12/24 09:11:34;;;;;;;;;;;;;;;11.89;63.32;99219.66;4360062;32;34131;-64
2022/12/24 09:14:01;;;;;;;;;;;;;;;12.74;61.02;99225.44;4359477;32;34775;-64
2022/12/24 09:16:28;;;;;;;;;;;;;;;12.45;61.17;99230.78;4359763;32;32647;-63
2022/12/24 09:18:56;;;;;;;;;;;;;;;12.67;60.75;99235.06;4357127;32;35192;-64
2022/12/24 09:21:24;;;;;;;;;;;;;;;12.31;61.61;99240.94;4362070;32;33565;-63
2022/12/24 09:23:51;;;;;;;;;;;;;;;12.66;60.83;99244.13;4358504;32;34393;-63
2022/12/24 09:26:23;;;;;;;;;;;;;;;12.48;61.24;99243.94;4360642;32;34246;-64
2022/12/24 09:28:50;;;;;;;;;;;;;;;12.41;61.48;99242.81;4358700;32;34355;-63
2022/12/24 09:31:18;;;;;;;;;;;;;;;12.65;60.91;99240.59;4358224;32;34081;-63
2022/12/24 09:33:46;;;;;;;;;;;;;;;12.25;61.91;99244.19;4361856;32;35144;-63
2022/12/24 09:36:14;;;;;;;;;;;;;;;12.42;61.24;99256.06;4356951;32;32780;-63
2022/12/24 09:38:42;;;;;;;;;;;;;;;12.46;60.86;99245.94;4358217;32;34326;-64
2022/12/24 09:41:10;;;;;;;;;;;;;;;12.26;61.47;99245.03;4359793;32;33454;-63
2022/12/24 09:43:37;;;;;;;;;;;;;;;12.42;61.34;99249.84;4360884;32;32843;-63
2022/12/24 09:46:07;;;;;;;;;;;;;;;12.90;59.89;99249.06;4354863;32;35202;-64
2022/12/24 09:48:35;;;;;;;;;;;;;;;13.05;59.67;99256.53;4343171;32;34015;-64
2022/12/24 09:51:05;;;;;;;;;;;;;;;13.03;59.41;99246.94;4360282;32;34392;-63
2022/12/24 09:53:38;;;;;;;;;;;;;;;13.28;58.98;99253.59;4359555;32;35177;-63
2022/12/24 09:56:31;;;;;;;;;;;;;;;13.19;58.68;99249.91;4359429;32;34416;-63
2022/12/24 09:59:00;;;;;;;;;;;;;;;13.14;58.74;99251.31;4355625;32;34644;-63
2022/12/24 10:01:30;;;;;;;;;;;;;;;13.32;58.46;99254.97;4362681;32;34332;-63
2022/12/24 10:04:14;;;;;;;;;;;;;;;13.26;58.44;99261.81;4355988;32;33083;-63
2022/12/24 10:06:51;;;;;;;;;;;;;;;13.38;58.46;99272.38;4350699;32;34312;-64
2022/12/24 10:09:21;;;;;;;;;;;;;;;13.27;58.52;99279.63;4352812;32;34715;-64
2022/12/24 10:12:01;;;;;;;;;;;;;;;13.23;58.81;99277.34;4348115;32;34331;-65
2022/12/24 10:14:28;;;;;;;;;;;;;;;12.49;60.88;99276.03;4349957;32;34338;-65
2022/12/24 10:17:15;;;;;;;;;;;;;;;13.23;58.95;99271.97;4351848;32;34395;-65
2022/12/24 10:20:01;;;;;;;;;;;;;;;13.59;58.04;99277.59;4352030;32;35189;-64
2022/12/24 10:22:31;;;;;;;;;;;;;;;13.50;58.20;99281.97;4352055;32;34169;-64
2022/12/24 10:25:03;;;;;;;;;;;;;;;13.14;59.56;99281.72;4352539;32;34347;-64
2022/12/24 10:27:35;;;;;;;;;;;;;;;13.40;58.63;99273.09;4348999;32;35288;-64
2022/12/24 10:30:06;;;;;;;;;;;;;;;13.57;58.35;99280.41;4339056;32;32647;-64
2022/12/24 10:32:39;;;;;;;;;;;;;;;13.21;59.30;99274.78;4353365;32;32021;-64
2022/12/24 10:35:15;;;;;;;;;;;;;;;13.15;59.36;99290.63;4350177;32;34032;-64
2022/12/24 10:37:43;;;;;;;;;;;;;;;13.07;59.82;99288.66;4350528;32;34333;-64
2022/12/24 10:40:13;;;;;;;;;;;;;;;13.19;58.90;99298.28;4349830;32;33956;-65
2022/12/24 10:42:43;;;;;;;;;;;;;;;13.45;58.48;99303.06;4338140;32;33302;-64
2022/12/24 10:45:20;;;;;;;;;;;;;;;13.51;57.83;99303.38;4351529;32;34781;-64
2022/12/24 10:47:49;;;;;;;;;;;;;;;13.71;57.86;99303.31;4356370;32;34186;-65
2022/12/24 10:50:29;;;;;;;;;;;;;;;13.75;57.58;99302.88;4358629;32;33218;-65
2022/12/24 10:53:01;;;;;;;;;;;;;;;13.66;57.78;99302.91;4359163;32;33437;-64
2022/12/24 10:55:28;;;;;;;;;;;;;;;13.87;57.47;99300.03;4358391;32;33922;-65
2022/12/24 10:58:00;;;;;;;;;;;;;;;13.39;58.78;99292.91;4358203;32;33056;-65
2022/12/24 11:00:28;;;;;;;;;;;;;;;13.23;58.20;99304.22;4343395;32;33101;-65
2022/12/24 11:03:06;;;;;;;;;;;;;;;13.46;57.22;99302.09;4344900;32;33616;-65
2022/12/24 11:05:35;;;;;;;;;;;;;;;13.22;57.50;99311.41;4359962;32;34354;-65
2022/12/24 11:08:03;;;;;;;;;;;;;;;12.81;57.62;99305.31;4356097;32;34592;-66
2022/12/24 11:10:39;;;;;;;;;;;;;;;13.17;56.39;99302.09;4359543;32;32754;-65
2022/12/24 11:13:17;;;;;;;;;;;;;;;13.21;55.89;99301.66;4346054;32;33031;-65
2022/12/24 11:16:15;;;;;;;;;;;;;;;13.21;55.55;99311.56;4349639;32;34413;-65
2022/12/24 11:18:44;;;;;;;;;;;;;;;13.28;54.57;99307.34;4357716;32;35101;-65
2022/12/24 11:21:19;;;;;;;;;;;;;;;13.70;53.23;99323.97;4361831;32;34489;-65
2022/12/24 11:23:50;;;;;;;;;;;;;;;13.64;53.75;99329.06;4346385;32;33641;-66
2022/12/24 11:26:20;;;;;;;;;;;;;;;14.24;51.75;99323.37;4349324;32;32856;-64
2022/12/24 11:29:02;;;;;;;;;;;;;;;14.03;52.07;99331.66;4359062;32;35057;-64
2022/12/24 11:31:31;;;;;;;;;;;;;;;14.06;51.66;99336.75;4356901;32;33188;-65
2022/12/24 11:33:59;;;;;;;;;;;;;;;14.00;52.06;99335.53;4356424;32;33450;-65
2022/12/24 11:36:26;;;;;;;;;;;;;;;14.06;52.10;99334.06;4350052;32;34882;-64
2022/12/24 11:38:54;;;;;;;;;;;;;;;14.01;51.80;99334.50;4346869;32;34200;-64
2022/12/24 11:41:22;;;;;;;;;;;;;;;14.20;51.47;99334.44;4349170;32;34500;-64
2022/12/24 11:43:50;;;;;;;;;;;;;;;14.16;51.75;99338.44;4339521;32;33773;-65
2022/12/24 11:46:40;;;;;;;;;;;;;;;14.15;51.70;99335.88;4339220;32;33857;-65
2022/12/24 11:49:11;;;;;;;;;;;;;;;13.30;54.28;99332.25;4335053;32;32175;-64
2022/12/24 11:51:57;;;;;;;;;;;;;;;13.71;53.98;99340.97;4355532;32;33765;-65
2022/12/24 11:54:28;;;;;;;;;;;;;;;14.11;52.97;99343.41;4349537;32;31619;-65
2022/12/24 11:56:56;;;;;;;;;;;;;;;14.02;53.64;99344.28;4351152;32;34444;-65
2022/12/24 11:59:30;;;;;;;;;;;;;;;13.95;53.34;99332.41;4337372;32;34506;-65
2022/12/24 12:02:05;;;;;;;;;;;;;;;13.78;53.35;99327.78;4350628;32;34867;-64
2022/12/24 12:04:33;;;;;;;;;;;;;;;14.01;52.40;99337.22;4338841;32;32173;-64
2022/12/24 12:07:03;;;;;;;;;;;;;;;14.28;52.51;99343.63;4352440;32;34355;-64
2022/12/24 12:09:40;;;;;;;;;;;;;;;13.78;53.73;99343.94;4349229;32;34375;-63
2022/12/24 12:12:08;;;;;;;;;;;;;;;13.69;53.85;99354.56;4352325;32;34344;-65
2022/12/24 12:14:37;;;;;;;;;;;;;;;13.89;52.99;99354.50;4342784;32;34698;-64
2022/12/24 12:17:23;;;;;;;;;;;;;;;14.34;52.32;99359.19;4342158;32;35077;-65
2022/12/24 12:20:10;;;;;;;;;;;;;;;13.89;52.71;99346.44;4350991;32;34082;-64
2022/12/24 12:22:44;;;;;;;;;;;;;;;14.09;52.48;99344.53;4346965;32;34165;-65
2022/12/24 12:25:21;;;;;;;;;;;;;;;14.21;52.30;99348.75;4351500;32;33638;-64
2022/12/24 12:27:50;;;;;;;;;;;;;;;13.62;53.94;99353.44;4350162;32;34352;-64
2022/12/24 12:30:19;;;;;;;;;;;;;;;14.16;53.07;99351.06;4333559;32;34118;-64
2022/12/24 12:32:57;;;;;;;;;;;;;;;14.30;52.90;99357.78;4347301;32;35019;-65
2022/12/24 12:35:29;;;;;;;;;;;;;;;13.77;54.45;99358.34;4351089;32;33070;-65
2022/12/24 12:37:58;;;;;;;;;;;;;;;13.89;54.18;99366.13;4350994;32;33815;-64
2022/12/24 12:40:29;;;;;;;;;;;;;;;13.85;54.10;99366.56;4347053;32;35409;-64
2022/12/24 12:43:02;;;;;;;;;;;;;;;14.08;53.34;99364.38;4341477;32;34665;-64
2022/12/24 12:45:33;;;;;;;;;;;;;;;14.23;52.71;99368.31;4339377;32;33382;-64
2022/12/24 12:48:10;;;;;;;;;;;;;;;13.87;53.09;99372.66;4353553;32;32989;-65
2022/12/24 12:50:38;;;;;;;;;;;;;;;14.02;52.36;99379.25;4343539;32;33764;-66
2022/12/24 12:53:16;;;;;;;;;;;;;;;14.23;52.07;99389.00;4351569;32;32946;-65
2022/12/24 12:55:43;;;;;;;;;;;;;;;13.92;52.80;99386.50;4343541;32;33610;-65
2022/12/24 12:58:37;;;;;;;;;;;;;;;13.94;52.35;99384.53;4351149;32;34570;-65
2022/12/24 13:01:15;;;;;;;;;;;;;;;13.83;52.83;99393.59;4350514;32;33058;-65
2022/12/24 13:03:52;;;;;;;;;;;;;;;13.78;52.56;99397.72;4341374;32;34669;-65
2022/12/24 13:06:25;;;;;;;;;;;;;;;14.08;51.97;99392.13;4339474;32;34305;-64
2022/12/24 13:09:02;;;;;;;;;;;;;;;14.21;51.71;99398.03;4342105;32;35525;-64
2022/12/24 13:11:32;;;;;;;;;;;;;;;13.95;52.09;99402.34;4359148;32;34141;-65